Time;durP1;ratioP1;P1;durP2;ratioP2;P2;SDS_P1;SDS_P2;PMS_P1;PMS_P2;Temp;Humidity;BMP_temperature;BMP_pressure;BME280_temperature;BME280_humidity;BME280_pressure;Samples;Min_cycle;Max_cycle;Signal;HPM_P1;HPM_P2
2023/03/01 00:02:10;;;;;;;;;;;;;;;-142.75;100.00;79874.75;4972531;28;19922;-67
2023/03/01 00:04:35;;;;;;;;;;;;;;;-142.75;100.00;79880.66;4972667;28;20330;-66
2023/03/01 00:07:01;;;;;;;;;;;;;;;-142.75;100.00;79868.84;4972460;28;20515;-66
2023/03/01 00:09:26;;;;;;;;;;;;;;;-142.75;100.00;79882.63;4972435;28;19960;-66
2023/03/01 00:11:51;;;;;;;;;;;;;;;-142.75;100.00;79888.53;4972390;28;20392;-67
2023/03/01 00:14:17;;;;;;;;;;;;;;;-142.75;100.00;79892.50;4972391;28;19968;-67
2023/03/01 00:16:43;;;;;;;;;;;;;;;-142.75;100.00;79876.72;4971211;28;19955;-67
2023/03/01 00:19:14;;;;;;;;;;;;;;;-142.75;100.00;79878.69;4972359;28;19925;-67
2023/03/01 00:21:39;;;;;;;;;;;;;;;-142.75;100.00;79878.69;4972329;28;19922;-67
2023/03/01 00:24:05;;;;;;;;;;;;;;;-142.75;100.00;79870.81;4972360;28;19914;-67
2023/03/01 00:26:30;;;;;;;;;;;;;;;-142.75;100.00;79886.56;4972314;28;19926;-67
2023/03/01 00:28:57;;;;;;;;;;;;;;;-142.75;100.00;79892.50;4972099;28;19964;-67
2023/03/01 00:31:24;;;;;;;;;;;;;;;-142.75;100.00;79888.53;4987144;28;19914;-67
2023/03/01 00:33:52;;;;;;;;;;;;;;;-142.75;100.00;79898.41;4972265;28;20371;-67
2023/03/01 00:36:17;;;;;;;;;;;;;;;-142.75;100.00;79888.53;4987157;28;19918;-67
2023/03/01 00:38:43;;;;;;;;;;;;;;;-142.75;100.00;79892.50;4972089;28;19940;-67
2023/03/01 00:41:13;;;;;;;;;;;;;;;-142.75;100.00;79910.22;4974801;28;19952;-67
2023/03/01 00:43:39;;;;;;;;;;;;;;;-142.75;100.00;79941.75;4978626;28;19922;-67
2023/03/01 00:46:05;;;;;;;;;;;;;;;-142.75;100.00;79955.53;4978469;28;20303;-67
2023/03/01 00:48:31;;;;;;;;;;;;;;;-142.75;100.00;79939.78;4978488;28;19976;-66
2023/03/01 00:50:56;;;;;;;;;;;;;;;-142.75;100.00;79951.59;4978422;28;20395;-67
2023/03/01 00:53:21;;;;;;;;;;;;;;;-142.75;100.00;79965.38;4978565;28;19914;-67
2023/03/01 00:55:46;;;;;;;;;;;;;;;-142.75;100.00;79965.38;4977935;28;19925;-67
2023/03/01 00:58:11;;;;;;;;;;;;;;;-142.75;100.00;79935.84;4978407;28;19922;-67
2023/03/01 01:00:36;;;;;;;;;;;;;;;-142.75;100.00;79925.97;4978185;28;19917;-67
2023/03/01 01:03:02;;;;;;;;;;;;;;;-142.75;100.00;79912.19;4978494;28;19914;-67
2023/03/01 01:05:27;;;;;;;;;;;;;;;-142.75;100.00;79912.19;4978438;28;19925;-67
2023/03/01 01:07:52;;;;;;;;;;;;;;;-142.75;100.00;79914.16;4978354;28;19914;-66
2023/03/01 01:59:03;;;;;;;;;;;;;;;-142.75;100.00;79870.81;4973658;28;19960;-66
2023/03/01 02:01:28;;;;;;;;;;;;;;;-142.75;100.00;79874.75;4974181;28;20337;-66
2023/03/01 02:03:53;;;;;;;;;;;;;;;-142.75;100.00;79862.94;4974372;28;19918;-66
2023/03/01 02:06:28;;;;;;;;;;;;;;;-142.75;100.00;79862.94;4974835;28;19925;-66
2023/03/01 02:08:57;;;;;;;;;;;;;;;-142.75;100.00;79890.50;4974408;28;20013;-66
2023/03/01 02:11:22;;;;;;;;;;;;;;;-142.75;100.00;79884.59;4974597;28;19914;-66
2023/03/01 02:13:48;;;;;;;;;;;;;;;-142.75;100.00;79884.59;4989514;28;19948;-66
2023/03/01 02:16:14;;;;;;;;;;;;;;;-142.75;100.00;79902.34;4974645;28;19918;-66
2023/03/01 02:18:40;;;;;;;;;;;;;;;-142.75;100.00;79894.47;4974458;28;19971;-66
2023/03/01 02:21:05;;;;;;;;;;;;;;;-142.75;100.00;79900.38;4989595;28;20415;-66
2023/03/01 02:23:31;;;;;;;;;;;;;;;-142.75;100.00;79898.41;4974432;28;19921;-66
2023/03/01 02:25:56;;;;;;;;;;;;;;;-142.75;100.00;79890.50;4974402;28;19960;-66
2023/03/01 02:28:35;;;;;;;;;;;;;;;-142.75;100.00;79892.50;4974391;28;19914;-66
2023/03/01 02:33:45;;;;;;;;;;;;;;;-142.75;100.00;79892.50;4974557;28;19977;-66
2023/03/01 02:36:13;;;;;;;;;;;;;;;-142.75;100.00;79894.47;4974296;28;19961;-66
2023/03/01 02:38:40;;;;;;;;;;;;;;;-142.75;100.00;79900.38;4974184;28;19918;-66
2023/03/01 02:41:06;;;;;;;;;;;;;;;-142.75;100.00;79896.44;4989123;28;19961;-66
2023/03/01 02:43:32;;;;;;;;;;;;;;;-142.75;100.00;79904.31;4974207;28;19913;-66
2023/03/01 02:45:59;;;;;;;;;;;;;;;-142.75;100.00;79894.47;4973916;28;20396;-66
2023/03/01 02:48:24;;;;;;;;;;;;;;;-142.75;100.00;79908.25;4973996;28;19913;-66
2023/03/01 02:50:52;;;;;;;;;;;;;;;-142.75;100.00;79900.38;4973763;28;19922;-66
2023/03/01 02:53:34;;;;;;;;;;;;;;;-142.75;100.00;79908.25;4987023;28;20405;-66
2023/03/01 02:55:59;;;;;;;;;;;;;;;-142.75;100.00;79896.44;4994787;23;19922;-63
2023/03/01 02:58:24;;;;;;;;;;;;;;;-142.75;100.00;79906.28;4971909;28;20013;-64
2023/03/01 03:00:49;;;;;;;;;;;;;;;-142.75;100.00;79918.09;4973432;28;20382;-65
2023/03/01 03:03:16;;;;;;;;;;;;;;;-142.75;100.00;79924.00;4973656;28;19984;-65
2023/03/01 03:05:41;;;;;;;;;;;;;;;-142.75;100.00;79902.34;4973505;28;19972;-65
2023/03/01 03:08:07;;;;;;;;;;;;;;;-142.75;100.00;79912.19;4973645;28;20379;-64
2023/03/01 03:10:34;;;;;;;;;;;;;;;-142.75;100.00;79908.25;4955972;28;20375;-65
2023/03/01 03:13:01;;;;;;;;;;;;;;;-142.75;100.00;79906.28;4973447;28;20442;-65
2023/03/01 03:15:27;;;;;;;;;;;;;;;-142.75;100.00;79918.09;4973395;28;20041;-64
2023/03/01 03:17:53;;;;;;;;;;;;;;;-142.75;100.00;79906.28;4973428;28;19965;-65
2023/03/01 03:20:20;;;;;;;;;;;;;;;-142.75;100.00;79910.22;4973275;28;20522;-65
2023/03/01 03:22:47;;;;;;;;;;;;;;;-142.75;100.00;79906.28;4973303;28;19940;-65
2023/03/01 03:25:12;;;;;;;;;;;;;;;-142.75;100.00;79898.41;4973334;28;20458;-64
2023/03/01 03:27:39;;;;;;;;;;;;;;;-142.75;100.00;79874.75;4988226;28;20008;-65
2023/03/01 03:30:08;;;;;;;;;;;;;;;-142.75;100.00;79878.69;4973102;28;19916;-65
2023/03/01 03:32:35;;;;;;;;;;;;;;;-142.75;100.00;79859.00;4973234;28;19914;-64
2023/03/01 03:35:00;;;;;;;;;;;;;;;-142.75;100.00;79876.72;4973034;28;19918;-64
2023/03/01 03:40:15;;;;;;;;;;;;;;;-142.75;100.00;79890.50;4973253;28;20103;-64
2023/03/01 03:42:40;;;;;;;;;;;;;;;-142.75;100.00;79904.31;4973111;28;19914;-64
2023/03/01 03:45:05;;;;;;;;;;;;;;;-142.75;100.00;79894.47;4972925;28;19914;-65
2023/03/01 03:47:30;;;;;;;;;;;;;;;-142.75;100.00;79894.47;4973015;28;19914;-65
2023/03/01 03:49:56;;;;;;;;;;;;;;;-142.75;100.00;79896.44;4972536;28;19917;-64
2023/03/01 03:52:21;;;;;;;;;;;;;;;-142.75;100.00;79888.53;4955474;28;19965;-64
2023/03/01 03:54:46;;;;;;;;;;;;;;;-142.75;100.00;79910.22;4955228;28;20004;-65
2023/03/01 03:57:11;;;;;;;;;;;;;;;-142.75;100.00;79896.44;4972765;28;19918;-65
2023/03/01 03:59:36;;;;;;;;;;;;;;;-142.75;100.00;79898.41;4972693;28;19918;-65
2023/03/01 04:02:02;;;;;;;;;;;;;;;-142.75;100.00;79922.03;4972539;28;19914;-64
2023/03/01 04:04:27;;;;;;;;;;;;;;;-142.75;100.00;79920.06;4972612;28;19914;-64
2023/03/01 04:06:52;;;;;;;;;;;;;;;-142.75;100.00;79902.34;4972600;28;19914;-65
2023/03/01 04:09:17;;;;;;;;;;;;;;;-142.75;100.00;79898.41;4987225;28;19921;-64
2023/03/01 04:11:42;;;;;;;;;;;;;;;-142.75;100.00;79920.06;4971195;28;19914;-65
2023/03/01 04:14:08;;;;;;;;;;;;;;;-142.75;100.00;79918.09;4987375;28;20005;-65
2023/03/01 04:16:33;;;;;;;;;;;;;;;-142.75;100.00;79914.16;4971807;28;19918;-65
2023/03/01 04:19:00;;;;;;;;;;;;;;;-142.75;100.00;79922.03;4972261;28;19983;-66
2023/03/01 04:21:25;;;;;;;;;;;;;;;-142.75;100.00;79918.09;4972412;28;20418;-65
2023/03/01 04:23:52;;;;;;;;;;;;;;;-142.75;100.00;79910.22;4972317;28;19949;-66
2023/03/01 04:26:17;;;;;;;;;;;;;;;-142.75;100.00;79908.25;4972382;28;19913;-65
2023/03/01 04:28:44;;;;;;;;;;;;;;;-142.75;100.00;79906.28;4972227;28;19940;-65
2023/03/01 04:31:15;;;;;;;;;;;;;;;-142.75;100.00;79902.34;4972336;28;19972;-65
2023/03/01 04:33:41;;;;;;;;;;;;;;;-142.75;100.00;79906.28;4972359;28;19918;-64
2023/03/01 04:36:08;;;;;;;;;;;;;;;-142.75;100.00;79920.06;4972093;28;19918;-64
2023/03/01 04:38:33;;;;;;;;;;;;;;;-142.75;100.00;79918.09;4972130;28;19914;-66
2023/03/01 04:40:59;;;;;;;;;;;;;;;-142.75;100.00;79898.41;4971586;28;19942;-66
2023/03/01 04:43:24;;;;;;;;;;;;;;;-142.75;100.00;79880.66;4955122;28;20304;-66
2023/03/01 04:45:49;;;;;;;;;;;;;;;-142.75;100.00;79884.59;4954730;28;20000;-65
2023/03/01 04:48:14;;;;;;;;;;;;;;;-142.75;100.00;79894.47;4954823;28;20013;-66
2023/03/01 04:50:40;;;;;;;;;;;;;;;-142.75;100.00;79876.72;4971908;28;19921;-65
2023/03/01 04:53:05;;;;;;;;;;;;;;;-142.75;100.00;79880.66;4954728;28;19922;-66
2023/03/01 04:55:31;;;;;;;;;;;;;;;-142.75;100.00;79886.56;4971902;28;20307;-66
2023/03/01 04:57:56;;;;;;;;;;;;;;;-142.75;100.00;79902.34;4972074;28;19936;-66
2023/03/01 05:00:21;;;;;;;;;;;;;;;-142.75;100.00;79920.06;4971817;28;19917;-64
2023/03/01 05:02:48;;;;;;;;;;;;;;;-142.75;100.00;79910.22;4971941;28;20319;-65
2023/03/01 05:05:13;;;;;;;;;;;;;;;-142.75;100.00;79918.09;4954682;28;19914;-65
2023/03/01 05:07:38;;;;;;;;;;;;;;;-142.75;100.00;79953.56;4954583;28;20654;-65
2023/03/01 05:10:04;;;;;;;;;;;;;;;-142.75;100.00;79979.16;4971831;28;20046;-66
2023/03/01 05:12:29;;;;;;;;;;;;;;;-142.75;100.00;79953.56;4972011;28;20399;-66
2023/03/01 05:14:54;;;;;;;;;;;;;;;-142.75;100.00;79973.25;4971693;28;19925;-65
2023/03/01 05:17:19;;;;;;;;;;;;;;;-142.75;100.00;79981.16;4971914;28;19914;-66
2023/03/01 05:19:46;;;;;;;;;;;;;;;-142.75;100.00;79973.25;4971682;28;19914;-64
2023/03/01 05:22:11;;;;;;;;;;;;;;;-142.75;100.00;79979.16;4971897;28;19921;-66
2023/03/01 05:24:36;;;;;;;;;;;;;;;-142.75;100.00;79981.16;4971819;28;19917;-66
2023/03/01 05:27:02;;;;;;;;;;;;;;;-142.75;100.00;79977.19;4972889;28;19925;-66
2023/03/01 05:29:28;;;;;;;;;;;;;;;-142.75;100.00;80000.84;4974052;28;19969;-66
2023/03/01 05:31:53;;;;;;;;;;;;;;;-142.75;100.00;80010.69;4975388;28;19914;-65
2023/03/01 05:34:22;;;;;;;;;;;;;;;-142.75;100.00;79989.03;4975300;28;20306;-66
2023/03/01 05:36:48;;;;;;;;;;;;;;;-142.75;100.00;79991.00;4975234;28;19918;-66
2023/03/01 05:39:13;;;;;;;;;;;;;;;-142.75;100.00;79983.13;4975173;28;20410;-66
2023/03/01 05:41:40;;;;;;;;;;;;;;;-142.75;100.00;79991.00;4975179;28;19960;-66
2023/03/01 05:44:06;;;;;;;;;;;;;;;-142.75;100.00;79996.91;4957723;28;20379;-66
2023/03/01 05:46:31;;;;;;;;;;;;;;;-142.75;100.00;79985.09;4975206;28;19914;-65
2023/03/01 05:48:56;;;;;;;;;;;;;;;-142.75;100.00;79981.16;4974849;28;20338;-66
2023/03/01 05:51:22;;;;;;;;;;;;;;;-142.75;100.00;79973.25;4974832;28;19964;-66
2023/03/01 05:53:47;;;;;;;;;;;;;;;-142.75;100.00;79979.16;4975075;28;19914;-66
2023/03/01 05:56:12;;;;;;;;;;;;;;;-142.75;100.00;79957.50;4974723;28;19953;-66
2023/03/01 05:58:38;;;;;;;;;;;;;;;-142.75;100.00;79947.66;4974822;28;20000;-65
2023/03/01 06:01:03;;;;;;;;;;;;;;;-142.75;100.00;79937.81;4974818;28;19987;-64
2023/03/01 06:03:28;;;;;;;;;;;;;;;-142.75;100.00;79918.09;4957448;28;20001;-66
2023/03/01 06:05:57;;;;;;;;;;;;;;;-142.75;100.00;79916.13;4974495;28;19914;-65
2023/03/01 06:08:24;;;;;;;;;;;;;;;-142.75;100.00;79906.28;4974756;28;20336;-66
2023/03/01 06:10:49;;;;;;;;;;;;;;;-142.75;100.00;79886.56;4974549;28;20327;-65
2023/03/01 06:13:14;;;;;;;;;;;;;;;-142.75;100.00;79906.28;4957401;28;20049;-65
2023/03/01 06:15:39;;;;;;;;;;;;;;;-142.75;100.00;79912.19;4974424;28;19957;-65
2023/03/01 06:18:04;;;;;;;;;;;;;;;-142.75;100.00;79961.44;4957216;28;20008;-65
2023/03/01 06:20:30;;;;;;;;;;;;;;;-142.75;100.00;79949.63;4974219;28;20008;-65
2023/03/01 06:22:55;;;;;;;;;;;;;;;-142.75;100.00;79939.78;4974593;28;19914;-65
2023/03/01 06:25:23;;;;;;;;;;;;;;;-142.75;100.00;79925.97;4974443;28;19914;-65
2023/03/01 06:27:48;;;;;;;;;;;;;;;-142.75;100.00;79945.69;4974440;28;19921;-65
2023/03/01 06:30:17;;;;;;;;;;;;;;;-142.75;100.00;79955.53;4972876;28;20342;-65
2023/03/01 06:32:42;;;;;;;;;;;;;;;-142.75;100.00;79983.13;4957017;28;19918;-64
2023/03/01 06:35:09;;;;;;;;;;;;;;;-142.75;100.00;79969.31;4961899;28;19925;-65
2023/03/01 06:37:35;;;;;;;;;;;;;;;-142.75;100.00;79961.44;4974338;28;19914;-65
2023/03/01 06:40:04;;;;;;;;;;;;;;;-142.75;100.00;79961.44;4972806;28;20334;-65
2023/03/01 06:42:29;;;;;;;;;;;;;;;-142.75;100.00;79945.69;4974142;28;19922;-63
2023/03/01 06:44:55;;;;;;;;;;;;;;;-142.75;100.00;79922.03;4974112;28;20362;-66
2023/03/01 06:47:20;;;;;;;;;;;;;;;-142.75;100.00;79914.16;4974263;28;19922;-66
2023/03/01 06:49:45;;;;;;;;;;;;;;;-142.75;100.00;79894.47;4974054;28;19921;-64
2023/03/01 06:52:10;;;;;;;;;;;;;;;-142.75;100.00;79868.84;4974178;28;19914;-66
2023/03/01 06:54:36;;;;;;;;;;;;;;;-142.75;100.00;79912.19;4979514;28;19914;-67
2023/03/01 06:57:01;;;;;;;;;;;;;;;-142.75;100.00;79886.56;4973970;28;20307;-65
2023/03/01 06:59:26;;;;;;;;;;;;;;;-142.75;100.00;79862.94;4973753;28;19921;-66
2023/03/01 07:01:51;;;;;;;;;;;;;;;-142.75;100.00;79859.00;4973695;28;19961;-65
2023/03/01 07:04:17;;;;;;;;;;;;;;;-142.75;100.00;79843.22;4973688;28;20327;-65
2023/03/01 07:06:42;;;;;;;;;;;;;;;-142.75;100.00;79821.56;4972405;28;19976;-66
2023/03/01 07:09:07;;;;;;;;;;;;;;;-142.75;100.00;79823.53;4973546;28;19949;-63
2023/03/01 07:11:32;;;;;;;;;;;;;;;-142.75;100.00;79821.56;4973497;28;19914;-65
2023/03/01 07:13:59;;;;;;;;;;;;;;;-142.75;100.00;79803.84;4973699;28;19913;-65
2023/03/01 07:16:25;;;;;;;;;;;;;;;-142.75;100.00;79799.91;4973427;28;19957;-66
2023/03/01 07:18:50;;;;;;;;;;;;;;;-142.75;100.00;79758.53;4973404;28;19953;-66
2023/03/01 07:21:16;;;;;;;;;;;;;;;-142.75;100.00;79740.78;4973352;28;19965;-65
2023/03/01 07:23:41;;;;;;;;;;;;;;;-142.75;100.00;79717.16;4973418;28;20352;-65
2023/03/01 07:26:07;;;;;;;;;;;;;;;-142.75;100.00;79715.19;4973315;28;19997;-65
2023/03/01 07:28:35;;;;;;;;;;;;;;;-142.75;100.00;79701.38;4972876;28;19920;-65
2023/03/01 07:31:04;;;;;;;;;;;;;;;-142.75;100.00;79693.50;4973149;28;19914;-65
2023/03/01 07:33:29;;;;;;;;;;;;;;;-142.75;100.00;79709.28;4973063;28;19918;-67
2023/03/01 07:35:58;;;;;;;;;;;;;;;-142.75;100.00;79711.25;4973031;28;19918;-64
2023/03/01 07:38:24;;;;;;;;;;;;;;;-142.75;100.00;79730.94;4973114;28;19921;-65
2023/03/01 07:40:49;;;;;;;;;;;;;;;-142.75;100.00;79705.34;4972892;28;20331;-65
2023/03/01 07:43:14;;;;;;;;;;;;;;;-142.75;100.00;79705.34;4975729;28;20608;-66
2023/03/01 07:45:39;;;;;;;;;;;;;;;-142.75;100.00;79644.25;4979090;28;20249;-65
2023/03/01 07:48:04;;;;;;;;;;;;;;;-142.75;100.00;79642.28;4972381;28;19917;-65
2023/03/01 07:50:30;;;;;;;;;;;;;;;-142.75;100.00;79642.28;4971579;28;19983;-65
2023/03/01 07:52:55;;;;;;;;;;;;;;;-142.75;100.00;79604.88;4955297;28;20394;-65
2023/03/01 07:55:20;;;;;;;;;;;;;;;-142.75;100.00;79600.91;4973543;28;19937;-64
2023/03/01 07:57:45;;;;;;;;;;;;;;;-142.75;100.00;79569.41;4973544;28;19914;-65
2023/03/01 08:00:11;;;;;;;;;;;;;;;-142.75;100.00;79553.63;4972185;28;19913;-64
2023/03/01 08:02:36;;;;;;;;;;;;;;;-142.75;100.00;79516.22;4970108;28;19914;-64
2023/03/01 08:05:02;;;;;;;;;;;;;;;-142.75;100.00;79496.50;4972238;28;19924;-65
2023/03/01 08:07:27;;;;;;;;;;;;;;;-142.75;100.00;79455.16;4972198;28;19914;-63
2023/03/01 08:09:52;;;;;;;;;;;;;;;-142.75;100.00;79465.00;4971926;28;19913;-64
2023/03/01 08:12:18;;;;;;;;;;;;;;;-142.75;100.00;79425.59;4972230;28;20354;-65
2023/03/01 08:14:43;;;;;;;;;;;;;;;-142.75;100.00;79413.78;4971873;28;19914;-65
2023/03/01 08:17:08;;;;;;;;;;;;;;;-142.75;100.00;79396.06;4971777;28;19914;-65
2023/03/01 08:19:34;;;;;;;;;;;;;;;-142.75;100.00;79380.28;4971771;28;20006;-65
2023/03/01 08:22:01;;;;;;;;;;;;;;;-142.75;100.00;79344.84;4971818;28;20012;-65
2023/03/01 08:24:26;;;;;;;;;;;;;;;-142.75;100.00;79342.88;4956281;28;20273;-66
2023/03/01 08:26:51;;;;;;;;;;;;;;;-142.75;100.00;79266.03;4971977;28;19928;-65
2023/03/01 08:29:17;;;;;;;;;;;;;;;-142.75;100.00;79295.59;4954301;28;20303;-65
2023/03/01 08:31:42;;;;;;;;;;;;;;;-142.75;100.00;79218.75;4971549;28;19972;-65
2023/03/01 08:34:09;;;;;;;;;;;;;;;-142.75;100.00;79220.75;4955256;28;19914;-65
2023/03/01 08:36:35;;;;;;;;;;;;;;;-142.75;100.00;79181.34;4971195;28;20012;-65
2023/03/01 08:39:01;;;;;;;;;;;;;;;-142.75;100.00;79181.34;4972489;28;19941;-64
2023/03/01 08:41:27;;;;;;;;;;;;;;;-142.75;100.00;79155.72;4956536;28;20000;-65
2023/03/01 08:43:52;;;;;;;;;;;;;;;-142.75;100.00;79098.63;4971651;28;20406;-64
2023/03/01 08:46:18;;;;;;;;;;;;;;;-142.75;100.00;79071.03;4969974;28;19996;-65
2023/03/01 08:48:43;;;;;;;;;;;;;;;-142.75;96.55;78988.31;4972048;28;19948;-66
2023/03/01 08:51:12;;;;;;;;;;;;;;;-142.75;94.03;78966.66;4972084;28;20004;-65
2023/03/01 08:53:39;;;;;;;;;;;;;;;-142.75;90.05;78964.69;4972168;28;19957;-65
2023/03/01 08:56:04;;;;;;;;;;;;;;;-142.75;89.46;78946.94;4972525;28;19977;-66
2023/03/01 08:58:29;;;;;;;;;;;;;;;-142.75;92.71;78956.78;4971856;28;19914;-65
2023/03/01 09:00:56;;;;;;;;;;;;;;;-142.75;88.39;78929.22;4973625;28;20060;-65
2023/03/01 09:03:21;;;;;;;;;;;;;;;-142.75;84.80;78897.72;4974811;28;19914;-65
2023/03/01 09:05:46;;;;;;;;;;;;;;;-142.75;85.29;78960.72;4975723;28;19928;-67
2023/03/01 09:08:12;;;;;;;;;;;;;;;-142.75;86.81;78956.78;4975910;28;19929;-67
2023/03/01 09:10:38;;;;;;;;;;;;;;;-142.75;85.92;78913.47;4975486;28;20292;-65
2023/03/01 09:13:03;;;;;;;;;;;;;;;-142.75;88.08;78915.44;4975566;28;19914;-66
2023/03/01 09:15:28;;;;;;;;;;;;;;;-142.75;87.82;78895.75;4975335;28;19918;-64
2023/03/01 09:17:53;;;;;;;;;;;;;;;-142.75;87.81;78881.94;4975732;28;20390;-65
2023/03/01 09:20:18;;;;;;;;;;;;;;;-142.75;88.08;78915.44;4975295;28;19938;-65
2023/03/01 09:22:44;;;;;;;;;;;;;;;-142.75;89.26;78950.88;4975603;28;19949;-65
2023/03/01 09:25:09;;;;;;;;;;;;;;;-142.75;90.83;78984.38;4978363;28;19960;-67
2023/03/01 09:27:34;;;;;;;;;;;;;;;-142.75;91.19;78952.84;4975756;28;19953;-65
2023/03/01 09:30:00;;;;;;;;;;;;;;;-142.75;89.92;78943.00;4976028;28;19961;-67
2023/03/01 09:32:25;;;;;;;;;;;;;;;-142.75;89.14;78956.78;4975153;28;20292;-65
2023/03/01 09:35:05;;;;;;;;;;;;;;;-142.75;88.81;78909.53;4974984;28;19913;-66
2023/03/01 09:37:32;;;;;;;;;;;;;;;-142.75;86.93;78838.63;4974552;28;19914;-64
2023/03/01 09:39:57;;;;;;;;;;;;;;;-142.75;85.86;78838.63;4975038;28;19914;-66
2023/03/01 09:42:22;;;;;;;;;;;;;;;-142.75;82.79;78809.06;4975260;28;19921;-64
2023/03/01 09:44:57;;;;;;;;;;;;;;;-142.75;82.06;78811.03;4975116;28;19946;-66
2023/03/01 09:47:34;;;;;;;;;;;;;;;-142.75;81.40;78820.88;4973987;28;19918;-65
2023/03/01 09:50:09;;;;;;;;;;;;;;;-142.75;77.97;78696.81;4974964;28;19922;-66
2023/03/01 09:52:37;;;;;;;;;;;;;;;-142.75;76.00;78702.72;4973921;28;19914;-66
2023/03/01 09:55:07;;;;;;;;;;;;;;;-142.75;75.27;78714.53;4974496;28;19918;-64
2023/03/01 09:57:38;;;;;;;;;;;;;;;-142.75;74.11;78696.81;4975065;28;19922;-65
2023/03/01 10:00:12;;;;;;;;;;;;;;;-142.75;75.20;78688.94;4973830;28;19921;-65
2023/03/01 10:02:41;;;;;;;;;;;;;;;-142.75;75.70;78765.75;4974526;28;19921;-66
2023/03/01 10:05:25;;;;;;;;;;;;;;;-142.75;71.50;78645.59;4974867;28;19933;-65
2023/03/01 10:07:51;;;;;;;;;;;;;;;-142.75;71.98;78621.97;4974769;28;19952;-65
2023/03/01 10:10:23;;;;;;;;;;;;;;;-142.75;74.32;78639.69;4974598;28;19949;-66
2023/03/01 10:12:49;;;;;;;;;;;;;;;-142.75;75.41;78633.78;4973134;28;19918;-65
2023/03/01 10:15:16;;;;;;;;;;;;;;;-142.75;73.25;78618.03;4973871;28;20414;-67
2023/03/01 10:17:50;;;;;;;;;;;;;;;-142.75;73.64;78686.97;4974664;28;19928;-66
2023/03/01 10:20:26;;;;;;;;;;;;;;;-142.75;74.66;78677.13;4972907;28;19921;-66
2023/03/01 10:22:55;;;;;;;;;;;;;;;-142.75;75.82;78775.59;4973679;28;20065;-66
2023/03/01 10:25:36;;;;;;;;;;;;;;;-142.75;76.10;78625.91;4974849;28;19929;-65
2023/03/01 10:28:04;;;;;;;;;;;;;;;-142.75;74.17;78608.19;4973331;28;19913;-66
2023/03/01 10:30:34;;;;;;;;;;;;;;;-142.75;75.34;78655.44;4974019;28;19986;-67
2023/03/01 10:32:59;;;;;;;;;;;;;;;-142.75;74.23;78681.06;4974377;28;19921;-65
2023/03/01 10:35:26;;;;;;;;;;;;;;;-142.75;74.53;78690.91;4974294;28;19922;-64
2023/03/01 10:38:02;;;;;;;;;;;;;;;-142.75;73.25;78562.88;4974240;28;20435;-66
2023/03/01 10:40:27;;;;;;;;;;;;;;;-142.75;71.61;78535.31;4973940;28;19914;-65
2023/03/01 10:42:52;;;;;;;;;;;;;;;-142.75;67.72;78531.38;4974073;28;19998;-66
2023/03/01 10:45:24;;;;;;;;;;;;;;;-142.75;66.66;78507.75;4974141;28;19918;-65
2023/03/01 10:48:02;;;;;;;;;;;;;;;-142.75;65.98;78448.66;4972970;28;19949;-65
2023/03/01 10:50:28;;;;;;;;;;;;;;;-142.75;68.98;78466.38;4956897;28;20008;-64
2023/03/01 10:52:58;;;;;;;;;;;;;;;-142.75;64.10;78399.44;4974065;28;20008;-64
2023/03/01 10:55:31;;;;;;;;;;;;;;;-142.75;67.30;78438.81;4973708;28;20429;-65
2023/03/01 10:58:17;;;;;;;;;;;;;;;-142.75;66.52;78395.47;4974034;28;19956;-65
2023/03/01 11:00:56;;;;;;;;;;;;;;;-142.75;66.65;78474.25;4972208;28;19917;-65
2023/03/01 11:03:26;;;;;;;;;;;;;;;-142.75;68.10;78417.16;4973371;28;20306;-67
2023/03/01 11:06:03;;;;;;;;;;;;;;;-142.75;63.47;78350.19;4973794;28;19921;-66
2023/03/01 11:08:41;;;;;;;;;;;;;;;-142.75;61.50;78342.31;4973994;28;19914;-65
2023/03/01 11:11:07;;;;;;;;;;;;;;;-142.75;60.05;78373.81;4973449;28;19985;-65
2023/03/01 11:13:32;;;;;;;;;;;;;;;-142.75;61.99;78484.09;4972424;28;20391;-66
2023/03/01 11:16:01;;;;;;;;;;;;;;;-142.75;64.31;78415.19;4973480;28;19924;-66
2023/03/01 11:18:29;;;;;;;;;;;;;;;-142.75;62.02;78365.94;4973509;28;19921;-65
2023/03/01 11:20:55;;;;;;;;;;;;;;;-142.75;60.22;78237.94;4973317;28;20290;-67
2023/03/01 11:23:21;;;;;;;;;;;;;;;-142.75;58.80;78293.06;4973507;28;19932;-65
2023/03/01 11:25:54;;;;;;;;;;;;;;;-142.75;59.43;78476.22;4973070;28;19914;-66
2023/03/01 11:28:21;;;;;;;;;;;;;;;-142.75;61.07;78403.38;4973468;28;19914;-64
2023/03/01 11:30:51;;;;;;;;;;;;;;;-142.75;61.24;78403.38;4972991;28;19914;-63
2023/03/01 11:33:34;;;;;;;;;;;;;;;-142.75;60.69;78350.19;4973300;28;19914;-65
2023/03/01 11:36:03;;;;;;;;;;;;;;;-142.75;53.97;78275.34;4973066;28;19976;-66
2023/03/01 11:38:30;;;;;;;;;;;;;;;-142.75;50.35;78263.53;4973117;28;19921;-65
2023/03/01 11:40:58;;;;;;;;;;;;;;;-142.75;51.23;78159.16;4972868;28;19997;-65
2023/03/01 11:43:27;;;;;;;;;;;;;;;-142.75;51.18;78208.41;4973144;28;19920;-66
2023/03/01 11:46:00;;;;;;;;;;;;;;;-142.75;54.04;78297.00;4972937;28;19918;-66
2023/03/01 11:48:34;;;;;;;;;;;;;;;-142.75;54.73;78314.75;4971863;28;19913;-65
2023/03/01 11:51:05;;;;;;;;;;;;;;;-142.75;57.64;78472.28;4971312;28;19914;-65
2023/03/01 11:53:49;;;;;;;;;;;;;;;-142.75;59.04;78430.94;4972592;28;19914;-66
2023/03/01 11:56:20;;;;;;;;;;;;;;;-142.75;58.07;78375.78;4972631;28;20013;-66
2023/03/01 11:58:59;;;;;;;;;;;;;;;-142.75;58.03;78425.03;4972691;28;19921;-65
2023/03/01 12:01:32;;;;;;;;;;;;;;;-142.75;59.09;78401.38;4972858;28;19969;-66
2023/03/01 12:04:06;;;;;;;;;;;;;;;-142.75;57.67;78401.38;4972390;28;20294;-66
2023/03/01 12:06:37;;;;;;;;;;;;;;;-142.75;57.90;78488.03;4955054;28;19968;-66
2023/03/01 12:09:14;;;;;;;;;;;;;;;-142.75;59.44;78541.22;4972510;28;20454;-67
2023/03/01 12:12:06;;;;;;;;;;;;;;;-142.75;59.25;78513.66;4971203;28;20427;-66
2023/03/01 12:14:40;;;;;;;;;;;;;;;-142.75;58.63;78409.28;4953049;28;19922;-65
2023/03/01 12:17:11;;;;;;;;;;;;;;;-142.75;58.04;78354.13;4971793;28;19925;-66
2023/03/01 12:19:54;;;;;;;;;;;;;;;-142.75;57.48;78332.47;4972408;28;19921;-66
2023/03/01 12:22:22;;;;;;;;;;;;;;;-142.75;56.76;78316.72;4971140;28;19929;-66
2023/03/01 12:25:08;;;;;;;;;;;;;;;-142.75;55.79;78352.16;4954030;28;19965;-68
2023/03/01 12:27:36;;;;;;;;;;;;;;;-142.75;56.01;78428.97;4969313;28;19961;-64
2023/03/01 12:30:21;;;;;;;;;;;;;;;-142.75;55.29;78334.44;4970634;28;19913;-66
2023/03/01 12:33:00;;;;;;;;;;;;;;;-142.75;54.46;78391.53;4971741;28;19914;-66
2023/03/01 12:35:35;;;;;;;;;;;;;;;-142.75;56.11;78409.28;4970374;28;20540;-66
2023/03/01 12:38:06;;;;;;;;;;;;;;;-142.75;59.13;78409.28;4970430;28;20012;-66
2023/03/01 12:40:41;;;;;;;;;;;;;;;-142.75;55.09;78275.34;4971346;28;19918;-63
2023/03/01 12:43:15;;;;;;;;;;;;;;;-142.75;54.33;78377.75;4971372;28;19941;-65
2023/03/01 12:45:50;;;;;;;;;;;;;;;-142.75;55.92;78427.00;4970677;28;19941;-66
2023/03/01 12:48:21;;;;;;;;;;;;;;;-142.75;53.66;78265.50;4954143;28;20002;-65
2023/03/01 12:50:48;;;;;;;;;;;;;;;-142.75;51.82;78285.19;4971147;28;19921;-64
2023/03/01 12:53:35;;;;;;;;;;;;;;;-142.75;49.94;78251.72;4972016;28;19975;-67
2023/03/01 12:56:04;;;;;;;;;;;;;;;-142.75;50.46;78204.47;4975605;28;20028;-66
2023/03/01 12:58:29;;;;;;;;;;;;;;;-142.75;51.26;78165.06;4972377;28;19914;-66
2023/03/01 13:01:14;;;;;;;;;;;;;;;-142.75;53.09;78253.69;4953813;28;19914;-66
2023/03/01 13:03:57;;;;;;;;;;;;;;;-142.75;52.23;78216.28;4970507;28;19921;-65
2023/03/01 13:06:32;;;;;;;;;;;;;;;-142.75;51.18;78222.19;4972799;28;19914;-66
2023/03/01 13:09:06;;;;;;;;;;;;;;;-142.75;53.30;78222.19;4972077;28;19921;-66
2023/03/01 13:11:31;;;;;;;;;;;;;;;-142.75;53.95;78186.75;4970705;28;19914;-66
2023/03/01 13:14:16;;;;;;;;;;;;;;;-142.75;54.00;78275.34;4974098;28;20459;-62
2023/03/01 13:16:43;;;;;;;;;;;;;;;-142.75;55.94;78397.44;4976274;28;19918;-67
2023/03/01 13:19:15;;;;;;;;;;;;;;;-142.75;56.50;78430.94;4953924;28;19914;-67